createdAt,value
2018-02-21T00:00:54.358Z,96.50
2018-02-21T00:01:54.331Z,100.60
2018-02-21T00:02:54.300Z,98.10
2018-02-21T00:03:54.274Z,97.80
2018-02-21T00:04:54.248Z,98.70
2018-02-21T00:05:54.221Z,96.50
2018-02-21T00:06:54.193Z,103.40
2018-02-21T00:07:54.172Z,96.30
2018-02-21T00:08:54.139Z,100.40
2018-02-21T00:09:54.113Z,99.70
2018-02-21T00:10:54.097Z,106.00
2018-02-21T00:11:54.073Z,99.00
2018-02-21T00:12:54.032Z,100.60
2018-02-21T00:13:54.012Z,107.40
2018-02-21T00:14:53.981Z,104.70
2018-02-21T00:15:53.953Z,102.50
2018-02-21T00:16:53.927Z,104.60
2018-02-21T00:17:53.901Z,100.60
2018-02-21T00:18:53.875Z,101.10
2018-02-21T00:19:53.929Z,97.50
2018-02-21T00:20:53.824Z,104.80
2018-02-21T00:21:53.796Z,102.90
2018-02-21T00:22:53.768Z,99.90
2018-02-21T00:23:53.743Z,102.40
2018-02-21T00:24:53.712Z,99.20
2018-02-21T00:25:53.688Z,98.10
2018-02-21T00:26:53.665Z,97.80
2018-02-21T00:27:53.637Z,104.50
2018-02-21T00:28:53.610Z,103.60
2018-02-21T00:29:53.582Z,102.30
2018-02-21T00:30:53.587Z,108.90
2018-02-21T00:31:53.530Z,105.10
2018-02-21T00:32:53.503Z,103.80
2018-02-21T00:33:53.495Z,105.40
2018-02-21T00:34:53.452Z,99.00
2018-02-21T00:35:53.422Z,105.90
2018-02-21T00:36:53.405Z,107.20
2018-02-21T00:37:53.370Z,108.10
2018-02-21T00:38:53.350Z,104.40
2018-02-21T00:39:53.326Z,108.90
2018-02-21T00:40:53.291Z,106.30
2018-02-21T00:41:53.264Z,105.40
2018-02-21T00:42:53.237Z,100.70
2018-02-21T00:43:53.220Z,99.70
2018-02-21T00:44:53.185Z,105.70
2018-02-21T00:45:53.170Z,106.00
2018-02-21T00:46:53.136Z,101.70
2018-02-21T00:47:53.105Z,97.40
2018-02-21T00:48:53.078Z,103.90
2018-02-21T00:49:53.049Z,105.90
2018-02-21T00:50:53.024Z,103.90
2018-02-21T00:51:52.995Z,104.70
2018-02-21T00:52:52.977Z,105.70
2018-02-21T00:53:52.944Z,103.20
2018-02-21T00:54:52.915Z,105.10
2018-02-21T00:55:52.894Z,108.60
2018-02-21T00:56:52.862Z,109.60
2018-02-21T00:57:52.843Z,104.90
2018-02-21T00:58:52.843Z,106.10
2018-02-21T00:59:52.787Z,110.40
2018-02-21T01:00:52.754Z,111.30
2018-02-21T01:01:52.748Z,109.80
2018-02-21T01:02:52.702Z,106.20
2018-02-21T01:03:52.675Z,107.30
2018-02-21T01:04:52.655Z,105.20
2018-02-21T01:05:52.623Z,110.10
2018-02-21T01:06:52.594Z,105.40
2018-02-21T01:07:52.571Z,104.90
2018-02-21T01:08:52.541Z,108.50
2018-02-21T01:09:52.514Z,108.40
2018-02-21T01:10:52.485Z,106.20
2018-02-21T01:11:52.461Z,108.70
2018-02-21T01:12:52.448Z,104.00
2018-02-21T01:13:52.414Z,107.20
2018-02-21T01:14:52.386Z,110.80
2018-02-21T01:15:52.428Z,106.70
2018-02-21T01:16:52.330Z,115.20
2018-02-21T01:17:52.300Z,112.30
2018-02-21T01:18:52.282Z,107.10
2018-02-21T01:19:52.249Z,109.30
2018-02-21T01:20:52.224Z,108.20
2018-02-21T01:21:52.195Z,105.80
2018-02-21T01:22:52.170Z,108.20
2018-02-21T01:23:52.147Z,111.30
2018-02-21T01:24:52.117Z,114.70
2018-02-21T01:25:52.099Z,113.60
2018-02-21T01:26:52.059Z,110.80
2018-02-21T01:27:52.033Z,112.40
2018-02-21T01:28:52.009Z,115.30
2018-02-21T01:29:51.979Z,109.80
2018-02-21T01:30:51.959Z,109.20
2018-02-21T01:31:51.929Z,106.40
2018-02-21T01:32:51.899Z,111.10
2018-02-21T01:33:51.872Z,109.50
2018-02-21T01:34:51.848Z,105.40
2018-02-21T01:35:51.818Z,113.20
2018-02-21T01:36:51.798Z,100.10
2018-02-21T01:37:51.783Z,107.30
2018-02-21T01:38:51.738Z,112.90
2018-02-21T01:39:51.712Z,112.40
2018-02-21T01:40:51.745Z,110.50
2018-02-21T01:41:51.658Z,113.50
2018-02-21T01:42:51.630Z,102.90
2018-02-21T01:43:51.660Z,110.30
2018-02-21T01:44:51.578Z,109.10
2018-02-21T01:45:51.548Z,114.60
2018-02-21T01:46:51.526Z,109.70
2018-02-21T01:47:51.495Z,117.10
2018-02-21T01:48:51.473Z,107.00
2018-02-21T01:49:51.445Z,109.30
2018-02-21T01:50:51.415Z,110.80
2018-02-21T01:51:51.388Z,113.70
2018-02-21T01:52:51.373Z,112.50
2018-02-21T01:53:51.352Z,116.10
2018-02-21T01:54:51.311Z,114.10
2018-02-21T01:55:51.289Z,109.60
2018-02-21T01:56:51.254Z,115.00
2018-02-21T01:57:51.236Z,113.00
2018-02-21T01:58:51.199Z,114.90
2018-02-21T01:59:51.176Z,112.40
2018-02-21T02:00:51.158Z,116.50
2018-02-21T02:01:51.119Z,112.60
2018-02-21T02:02:51.093Z,116.00
2018-02-21T02:03:51.067Z,115.20
2018-02-21T02:04:51.036Z,113.00
2018-02-21T02:05:51.018Z,116.00
2018-02-21T02:06:50.986Z,110.80
2018-02-21T02:07:50.958Z,117.90
2018-02-21T02:08:50.945Z,110.60
2018-02-21T02:09:50.907Z,112.10
2018-02-21T02:10:50.876Z,114.50
2018-02-21T02:11:50.859Z,112.20
2018-02-21T02:12:50.824Z,112.50
2018-02-21T02:13:50.796Z,111.30
2018-02-21T02:14:50.773Z,109.50
2018-02-21T02:15:50.742Z,115.50
2018-02-21T02:16:50.802Z,109.10
2018-02-21T02:17:50.696Z,110.50
2018-02-21T02:18:50.665Z,112.30
2018-02-21T02:19:50.737Z,116.10
2018-02-21T02:20:50.608Z,118.20
2018-02-21T02:21:50.590Z,115.60
2018-02-21T02:22:50.556Z,111.90
2018-02-21T02:23:50.527Z,115.90
2018-02-21T02:24:50.499Z,111.20
2018-02-21T02:25:50.472Z,115.60
2018-02-21T02:26:50.447Z,114.00
2018-02-21T02:27:50.422Z,112.50
2018-02-21T02:28:50.395Z,115.30
2018-02-21T02:29:50.365Z,118.90
2018-02-21T02:30:50.339Z,116.10
2018-02-21T02:31:50.311Z,118.30
2018-02-21T02:32:50.284Z,115.30
2018-02-21T02:33:50.259Z,117.00
2018-02-21T02:34:50.231Z,117.70
2018-02-21T02:35:50.203Z,119.50
2018-02-21T02:36:50.176Z,116.40
2018-02-21T02:37:50.151Z,112.40
2018-02-21T02:38:50.122Z,118.50
2018-02-21T02:39:50.100Z,118.70
2018-02-21T02:40:50.070Z,115.00
2018-02-21T02:41:50.041Z,120.10
2018-02-21T02:42:50.034Z,119.80
2018-02-21T02:43:49.989Z,116.70
2018-02-21T02:44:50.075Z,110.60
2018-02-21T02:45:49.932Z,120.50
2018-02-21T02:46:49.919Z,115.70
2018-02-21T02:47:49.882Z,118.40
2018-02-21T02:48:49.858Z,115.60
2018-02-21T02:49:49.824Z,116.40
2018-02-21T02:50:49.801Z,113.10
2018-02-21T02:51:49.775Z,120.20
2018-02-21T02:52:49.745Z,121.10
2018-02-21T02:53:49.725Z,117.20
2018-02-21T02:54:49.710Z,117.80
2018-02-21T02:55:49.813Z,120.60
2018-02-21T02:56:49.641Z,118.40
2018-02-21T02:57:49.608Z,121.30
2018-02-21T02:58:49.594Z,111.30
2018-02-21T02:59:49.557Z,121.70
2018-02-21T03:00:49.528Z,113.00
2018-02-21T03:01:49.515Z,116.20
2018-02-21T03:02:49.476Z,115.30
2018-02-21T03:03:49.456Z,120.50
2018-02-21T03:04:49.426Z,118.40
2018-02-21T03:05:49.394Z,118.20
2018-02-21T03:06:49.382Z,120.20
2018-02-21T03:07:49.338Z,122.50
2018-02-21T03:08:49.311Z,124.20
2018-02-21T03:09:49.286Z,118.90
2018-02-21T03:10:49.254Z,120.90
2018-02-21T03:11:49.230Z,117.30
2018-02-21T03:12:49.200Z,123.60
2018-02-21T03:13:49.176Z,117.70
2018-02-21T03:14:49.147Z,116.10
2018-02-21T03:15:49.120Z,121.90
2018-02-21T03:16:49.106Z,121.40
2018-02-21T03:17:49.067Z,124.70
2018-02-21T03:18:49.039Z,117.50
2018-02-21T03:19:49.014Z,118.20
2018-02-21T03:20:48.984Z,116.40
2018-02-21T03:21:48.956Z,117.40
2018-02-21T03:22:48.928Z,116.50
2018-02-21T03:23:49.050Z,122.50
2018-02-21T03:24:48.875Z,117.50
2018-02-21T03:25:48.848Z,121.30
2018-02-21T03:26:48.859Z,121.80
2018-02-21T03:27:48.797Z,119.30
2018-02-21T03:28:48.768Z,114.80
2018-02-21T03:29:48.753Z,113.90
2018-02-21T03:30:48.714Z,121.10
2018-02-21T03:31:48.685Z,117.30
2018-02-21T03:32:48.658Z,122.20
2018-02-21T03:33:48.630Z,117.20
2018-02-21T03:34:48.602Z,113.20
2018-02-21T03:35:48.578Z,121.90
2018-02-21T03:36:48.547Z,122.10
2018-02-21T03:37:48.627Z,115.90
2018-02-21T03:38:48.494Z,113.20
2018-02-21T03:39:48.472Z,119.90
2018-02-21T03:40:48.441Z,114.40
2018-02-21T03:41:48.417Z,113.30
2018-02-21T03:42:48.386Z,114.60
2018-02-21T03:43:48.361Z,111.00
2018-02-21T03:44:48.332Z,115.00
2018-02-21T03:45:48.304Z,114.50
2018-02-21T03:46:48.276Z,114.20
2018-02-21T03:47:48.252Z,110.50
2018-02-21T03:48:48.223Z,116.40
2018-02-21T03:49:48.199Z,113.50
2018-02-21T03:50:48.170Z,108.50
2018-02-21T03:51:48.139Z,105.90
2018-02-21T03:52:48.112Z,111.30
2018-02-21T03:53:48.090Z,109.20
2018-02-21T03:54:48.066Z,108.40
2018-02-21T03:55:48.036Z,109.00
2018-02-21T03:56:48.005Z,106.20
2018-02-21T03:57:47.980Z,110.50
2018-02-21T03:58:47.950Z,107.40
2018-02-21T03:59:47.929Z,105.40
2018-02-21T04:00:47.898Z,112.00
2018-02-21T04:01:47.869Z,112.30
2018-02-21T04:02:47.841Z,111.10
2018-02-21T04:03:47.813Z,114.90
2018-02-21T04:04:47.788Z,113.80
2018-02-21T04:05:47.917Z,106.50
2018-02-21T04:06:47.733Z,112.40
2018-02-21T04:07:47.704Z,107.20
2018-02-21T04:08:47.780Z,115.90
2018-02-21T04:09:47.650Z,106.80
2018-02-21T04:10:47.622Z,110.70
2018-02-21T04:11:47.619Z,116.20
2018-02-21T04:12:47.571Z,110.40
2018-02-21T04:13:47.539Z,114.80
2018-02-21T04:14:47.517Z,114.50
2018-02-21T04:15:47.495Z,106.10
2018-02-21T04:16:47.467Z,113.20
2018-02-21T04:17:47.433Z,115.70
2018-02-21T04:18:47.405Z,109.10
2018-02-21T04:19:47.381Z,109.60
2018-02-21T04:20:47.350Z,111.00
2018-02-21T04:21:47.322Z,116.60
2018-02-21T04:22:47.296Z,111.60
2018-02-21T04:23:47.270Z,114.60
2018-02-21T04:24:47.241Z,109.70
2018-02-21T04:25:47.215Z,112.10
2018-02-21T04:26:47.191Z,116.80
2018-02-21T04:27:47.160Z,105.10
2018-02-21T04:28:47.140Z,106.20
2018-02-21T04:29:47.104Z,108.30
2018-02-21T04:30:47.096Z,113.00
2018-02-21T04:31:47.052Z,111.20
2018-02-21T04:32:47.025Z,108.50
2018-02-21T04:33:46.997Z,110.70
2018-02-21T04:34:46.971Z,107.50
2018-02-21T04:35:46.944Z,109.30
2018-02-21T04:36:46.913Z,108.70
2018-02-21T04:37:46.887Z,115.40
2018-02-21T04:38:46.859Z,108.80
2018-02-21T04:39:46.834Z,105.00
2018-02-21T04:40:46.803Z,114.90
2018-02-21T04:41:46.777Z,110.50
2018-02-21T04:42:46.753Z,117.60
2018-02-21T04:43:46.725Z,110.30
2018-02-21T04:44:46.796Z,118.70
2018-02-21T04:45:46.668Z,112.90
2018-02-21T04:46:46.642Z,107.90
2018-02-21T04:47:46.630Z,110.80
2018-02-21T04:48:46.587Z,108.50
2018-02-21T04:49:46.558Z,111.20
2018-02-21T04:50:46.633Z,108.80
2018-02-21T04:51:46.504Z,115.20
2018-02-21T04:52:46.478Z,110.20
2018-02-21T04:53:46.457Z,104.70
2018-02-21T04:54:46.423Z,111.00
2018-02-21T04:55:46.395Z,107.70
2018-02-21T04:56:46.367Z,103.80
2018-02-21T04:57:46.341Z,106.00
2018-02-21T04:58:46.315Z,108.30
2018-02-21T04:59:46.287Z,107.00
2018-02-21T05:00:46.270Z,104.70
2018-02-21T05:01:46.237Z,105.70
2018-02-21T05:02:46.203Z,102.60
2018-02-21T05:03:46.181Z,105.70
2018-02-21T05:04:46.151Z,102.60
2018-02-21T05:05:46.119Z,106.20
2018-02-21T05:06:46.097Z,103.50
2018-02-21T05:07:46.072Z,107.50
2018-02-21T05:08:46.041Z,107.80
2018-02-21T05:09:46.013Z,108.50
2018-02-21T05:10:45.984Z,108.20
2018-02-21T05:11:45.959Z,109.60
2018-02-21T05:12:45.930Z,103.80
2018-02-21T05:13:45.906Z,105.20
2018-02-21T05:14:45.877Z,105.30
2018-02-21T05:15:45.850Z,105.50
2018-02-21T05:16:45.819Z,102.60
2018-02-21T05:17:45.795Z,104.60
2018-02-21T05:18:45.768Z,106.20
2018-02-21T05:19:45.739Z,103.00
2018-02-21T05:20:45.792Z,102.90
2018-02-21T05:21:45.690Z,108.40
2018-02-21T05:22:45.659Z,111.10
2018-02-21T05:23:45.647Z,111.70
2018-02-21T05:24:45.599Z,104.40
2018-02-21T05:25:45.572Z,105.60
2018-02-21T05:26:45.550Z,114.60
2018-02-21T05:27:45.519Z,108.30
2018-02-21T05:28:45.489Z,107.10
2018-02-21T05:29:45.463Z,105.00
2018-02-21T05:30:45.438Z,98.10
2018-02-21T05:31:45.409Z,103.60
2018-02-21T05:32:45.379Z,100.30
2018-02-21T05:33:45.357Z,109.90
2018-02-21T05:34:45.326Z,110.60
2018-02-21T05:35:45.299Z,111.40
2018-02-21T05:36:45.273Z,106.30
2018-02-21T05:37:45.244Z,101.90
2018-02-21T05:38:45.215Z,102.70
2018-02-21T05:39:45.191Z,107.30
2018-02-21T05:40:45.162Z,104.10
2018-02-21T05:41:45.137Z,104.70
2018-02-21T05:42:45.108Z,102.80
2018-02-21T05:43:45.081Z,100.30
2018-02-21T05:44:45.054Z,99.40
2018-02-21T05:45:45.027Z,104.60
2018-02-21T05:46:44.994Z,108.10
2018-02-21T05:47:44.967Z,106.20
2018-02-21T05:48:45.020Z,105.70
2018-02-21T05:49:44.916Z,107.60
2018-02-21T05:50:44.885Z,100.50
2018-02-21T05:51:44.869Z,102.80
2018-02-21T05:52:44.829Z,102.90
2018-02-21T05:53:44.815Z,102.60
2018-02-21T05:54:44.810Z,109.90
2018-02-21T05:55:44.746Z,111.80
2018-02-21T05:56:44.723Z,106.80
2018-02-21T05:57:44.694Z,107.00
2018-02-21T05:58:44.663Z,105.70
2018-02-21T05:59:44.636Z,105.80
2018-02-21T06:00:44.609Z,104.20
2018-02-21T06:01:44.581Z,110.00
2018-02-21T06:02:44.670Z,104.40
2018-02-21T06:03:44.523Z,112.90
2018-02-21T06:04:44.497Z,108.20
2018-02-21T06:05:44.535Z,115.00
2018-02-21T06:06:44.443Z,103.70
2018-02-21T06:07:44.412Z,112.10
2018-02-21T06:08:44.387Z,106.80
2018-02-21T06:09:44.358Z,107.00
2018-02-21T06:10:44.332Z,104.50
2018-02-21T06:11:44.303Z,108.40
2018-02-21T06:12:44.277Z,104.10
2018-02-21T06:13:44.259Z,110.10
2018-02-21T06:14:44.222Z,114.60
2018-02-21T06:15:44.199Z,109.70
2018-02-21T06:16:44.168Z,104.70
2018-02-21T06:17:44.136Z,100.70
2018-02-21T06:18:44.106Z,104.30
2018-02-21T06:19:44.085Z,100.90
2018-02-21T06:20:44.068Z,108.40
2018-02-21T06:21:44.031Z,104.50
2018-02-21T06:22:43.997Z,108.90
2018-02-21T06:23:43.971Z,107.90
2018-02-21T06:24:43.943Z,106.50
2018-02-21T06:25:43.912Z,97.90
2018-02-21T06:26:43.885Z,107.80
2018-02-21T06:27:43.859Z,103.90
2018-02-21T06:28:43.828Z,106.20
2018-02-21T06:29:43.803Z,106.80
2018-02-21T06:30:43.882Z,106.00
2018-02-21T06:31:43.749Z,107.70
2018-02-21T06:32:43.721Z,110.10
2018-02-21T06:33:43.715Z,102.60
2018-02-21T06:34:43.662Z,109.90
2018-02-21T06:35:43.642Z,104.00
2018-02-21T06:36:43.622Z,107.20
2018-02-21T06:37:43.580Z,108.80
2018-02-21T06:38:43.554Z,107.20
2018-02-21T06:39:43.523Z,106.10
2018-02-21T06:40:43.499Z,109.00
2018-02-21T06:41:43.468Z,107.60
2018-02-21T06:42:43.437Z,103.00
2018-02-21T06:43:43.410Z,102.50
2018-02-21T06:44:43.386Z,107.60
2018-02-21T06:45:43.351Z,105.00
2018-02-21T06:46:43.327Z,103.60
2018-02-21T06:47:43.300Z,96.20
2018-02-21T06:48:43.269Z,110.20
2018-02-21T06:49:43.243Z,104.10
2018-02-21T06:50:43.217Z,106.00
2018-02-21T06:51:43.189Z,107.50
2018-02-21T06:52:43.158Z,111.10
2018-02-21T06:53:43.132Z,101.70
2018-02-21T06:54:43.106Z,104.90
2018-02-21T06:55:43.077Z,98.20
2018-02-21T06:56:43.048Z,111.00
2018-02-21T06:57:43.029Z,108.50
2018-02-21T06:58:42.995Z,106.00
2018-02-21T06:59:42.978Z,99.30
2018-02-21T07:00:42.935Z,105.00
2018-02-21T07:01:42.908Z,103.40
2018-02-21T07:02:42.883Z,101.20
2018-02-21T07:03:42.854Z,98.60
2018-02-21T07:04:42.828Z,101.60
2018-02-21T07:05:42.801Z,103.50
2018-02-21T07:06:42.778Z,101.10
2018-02-21T07:07:42.744Z,104.80
2018-02-21T07:08:42.722Z,102.50
2018-02-21T07:09:42.687Z,99.70
2018-02-21T07:10:42.677Z,97.80
2018-02-21T07:11:42.633Z,100.60
2018-02-21T07:12:42.664Z,99.90
2018-02-21T07:13:42.575Z,107.40
2018-02-21T07:14:42.549Z,101.10
2018-02-21T07:15:42.606Z,98.10
2018-02-21T07:16:42.495Z,101.50
2018-02-21T07:17:42.466Z,100.50
2018-02-21T07:18:42.440Z,99.90
2018-02-21T07:19:42.417Z,102.20
2018-02-21T07:20:42.390Z,99.00
2018-02-21T07:21:42.356Z,104.10
2018-02-21T07:22:42.335Z,94.90
2018-02-21T07:23:42.309Z,104.60
2018-02-21T07:24:42.273Z,99.40
2018-02-21T07:25:42.244Z,100.00
2018-02-21T07:26:42.216Z,96.20
2018-02-21T07:27:42.201Z,106.20
2018-02-21T07:28:42.164Z,100.60
2018-02-21T07:29:42.133Z,95.60
2018-02-21T07:30:42.112Z,90.10
2018-02-21T07:31:42.087Z,102.70
2018-02-21T07:32:42.057Z,106.20
2018-02-21T07:33:42.025Z,97.40
2018-02-21T07:34:42.002Z,96.50
2018-02-21T07:35:41.971Z,103.10
2018-02-21T07:36:41.945Z,100.50
2018-02-21T07:37:41.920Z,100.70
2018-02-21T07:38:41.892Z,99.90
2018-02-21T07:39:41.862Z,97.20
2018-02-21T07:40:41.835Z,101.20
2018-02-21T07:41:41.810Z,93.80
2018-02-21T07:42:41.781Z,92.20
2018-02-21T07:43:41.760Z,97.40
2018-02-21T07:44:41.730Z,95.90
2018-02-21T07:45:41.699Z,94.80
2018-02-21T07:46:41.683Z,98.50
2018-02-21T07:47:41.646Z,94.60
2018-02-21T07:48:41.615Z,91.10
2018-02-21T07:49:41.591Z,96.70
2018-02-21T07:50:41.563Z,90.20
2018-02-21T07:51:41.637Z,105.30
2018-02-21T07:52:41.517Z,100.40
2018-02-21T07:53:41.483Z,94.80
2018-02-21T07:54:41.483Z,98.30
2018-02-21T07:55:41.439Z,93.00
2018-02-21T07:56:41.400Z,97.00
2018-02-21T07:57:41.380Z,89.60
2018-02-21T07:58:41.348Z,97.40
2018-02-21T07:59:41.320Z,91.60
2018-02-21T08:00:41.291Z,96.90
2018-02-21T08:01:41.279Z,93.40
2018-02-21T08:02:41.237Z,94.20
2018-02-21T08:03:41.213Z,93.70
2018-02-21T08:04:41.183Z,86.20
2018-02-21T08:05:41.157Z,97.20
2018-02-21T08:06:41.134Z,94.20
2018-02-21T08:07:41.115Z,90.10
2018-02-21T08:08:41.071Z,91.40
2018-02-21T08:09:41.047Z,88.00
2018-02-21T08:10:41.020Z,89.10
2018-02-21T08:11:40.993Z,97.10
2018-02-21T08:12:40.966Z,89.20
2018-02-21T08:13:40.939Z,87.20
2018-02-21T08:14:40.923Z,84.30
2018-02-21T08:15:40.896Z,87.60
2018-02-21T08:16:40.859Z,93.10
2018-02-21T08:17:40.838Z,89.90
2018-02-21T08:18:40.805Z,90.00
2018-02-21T08:19:40.780Z,88.60
2018-02-21T08:20:40.758Z,84.30
2018-02-21T08:21:40.728Z,85.40
2018-02-21T08:22:40.707Z,84.70
2018-02-21T08:23:40.673Z,87.60
2018-02-21T08:24:40.645Z,91.30
2018-02-21T08:25:40.616Z,87.50
2018-02-21T08:26:40.603Z,85.60
2018-02-21T08:27:40.573Z,87.10
2018-02-21T08:28:40.537Z,85.60
2018-02-21T08:29:40.510Z,89.30
2018-02-21T08:30:40.619Z,89.10
2018-02-21T08:31:40.457Z,86.30
2018-02-21T08:32:40.431Z,89.70
2018-02-21T08:33:40.470Z,88.10
2018-02-21T08:34:40.443Z,89.50
2018-02-21T08:35:40.357Z,87.60
2018-02-21T08:36:40.326Z,83.80
2018-02-21T08:37:40.299Z,88.50
2018-02-21T08:38:40.277Z,83.50
2018-02-21T08:39:40.245Z,87.80
2018-02-21T08:40:40.277Z,89.30
2018-02-21T08:41:40.203Z,83.60
2018-02-21T08:42:40.169Z,88.80
2018-02-21T08:43:40.144Z,86.60
2018-02-21T08:44:40.121Z,89.40
2018-02-21T08:45:40.088Z,87.80
2018-02-21T08:46:40.063Z,85.90
2018-02-21T08:47:40.044Z,83.30
2018-02-21T08:48:40.013Z,85.20
2018-02-21T08:49:39.990Z,73.50
2018-02-21T08:50:39.957Z,77.40
2018-02-21T08:51:39.940Z,74.90
2018-02-21T08:52:39.904Z,79.90
2018-02-21T08:53:39.876Z,74.50
2018-02-21T08:54:39.864Z,75.30
2018-02-21T08:55:39.838Z,76.80
2018-02-21T08:56:39.802Z,75.80
2018-02-21T08:57:39.773Z,74.40
2018-02-21T08:58:39.774Z,76.20
2018-02-21T08:59:39.727Z,80.30
2018-02-21T09:00:39.700Z,80.10
2018-02-21T09:01:39.724Z,80.20
2018-02-21T09:02:39.653Z,69.30
2018-02-21T09:03:39.626Z,74.80
2018-02-21T09:04:39.607Z,76.40
2018-02-21T09:05:39.577Z,81.10
2018-02-21T09:06:39.539Z,78.70
2018-02-21T09:07:39.515Z,70.20
2018-02-21T09:08:39.490Z,71.40
2018-02-21T09:09:39.479Z,73.40
2018-02-21T09:10:39.448Z,74.90
2018-02-21T09:11:39.411Z,71.60
2018-02-21T09:12:39.392Z,71.30
2018-02-21T09:13:39.360Z,78.40
2018-02-21T09:14:39.342Z,72.20
2018-02-21T09:15:39.308Z,72.40
2018-02-21T09:16:39.378Z,65.50
2018-02-21T09:17:39.259Z,68.70
2018-02-21T09:18:39.234Z,66.40
2018-02-21T09:19:39.208Z,60.20
2018-02-21T09:20:39.183Z,61.70
2018-02-21T09:21:39.159Z,64.40
2018-02-21T09:22:39.136Z,60.90
2018-02-21T09:23:39.118Z,65.00
2018-02-21T09:24:39.087Z,62.20
2018-02-21T09:25:39.061Z,61.10
2018-02-21T09:26:39.038Z,60.50
2018-02-21T09:27:39.017Z,65.30
2018-02-21T09:28:38.991Z,65.90
2018-02-21T09:29:38.970Z,64.40
2018-02-21T09:30:38.947Z,63.40
2018-02-21T09:31:38.941Z,60.30
2018-02-21T09:32:38.925Z,58.30
2018-02-21T09:33:38.882Z,58.30
2018-02-21T09:34:38.892Z,64.40
2018-02-21T09:35:38.842Z,58.60
2018-02-21T09:36:38.820Z,65.70
2018-02-21T09:37:38.857Z,56.80
2018-02-21T09:38:38.780Z,64.50
2018-02-21T09:39:38.761Z,62.00
2018-02-21T09:40:38.767Z,67.60
2018-02-21T09:41:38.820Z,65.90
2018-02-21T09:42:38.704Z,61.60
2018-02-21T09:43:38.686Z,60.70
2018-02-21T09:44:38.668Z,61.10
2018-02-21T09:45:38.658Z,63.60
2018-02-21T09:46:38.633Z,73.00
2018-02-21T09:47:38.615Z,67.20
2018-02-21T09:48:38.594Z,69.80
2018-02-21T09:49:38.588Z,62.40
2018-02-21T09:50:38.598Z,62.60
2018-02-21T09:51:38.553Z,62.90
2018-02-21T09:52:38.526Z,60.90
2018-02-21T09:53:38.587Z,58.80
2018-02-21T09:54:38.494Z,61.10
2018-02-21T09:55:38.476Z,69.10
2018-02-21T09:56:38.465Z,54.60
2018-02-21T09:57:38.445Z,56.80
2018-02-21T09:58:38.424Z,56.80
2018-02-21T09:59:38.406Z,57.90
2018-02-21T10:00:38.387Z,72.20
2018-02-21T10:01:38.377Z,65.30
2018-02-21T10:02:38.362Z,56.70
2018-02-21T10:03:38.337Z,56.70
2018-02-21T10:04:38.322Z,63.10
2018-02-21T10:05:38.305Z,68.00
2018-02-21T10:06:38.286Z,58.20
2018-02-21T10:07:38.271Z,65.30
2018-02-21T10:08:38.257Z,62.70
2018-02-21T10:09:38.244Z,53.10
2018-02-21T10:10:38.222Z,63.50
2018-02-21T10:11:38.207Z,58.90
2018-02-21T10:12:38.192Z,59.80
2018-02-21T10:13:38.177Z,63.80
2018-02-21T10:14:38.156Z,53.30
2018-02-21T10:15:38.146Z,54.10
2018-02-21T10:16:38.125Z,60.60
2018-02-21T10:17:38.228Z,60.90
2018-02-21T10:18:38.095Z,59.70
2018-02-21T10:19:38.080Z,58.20
2018-02-21T10:20:38.083Z,59.60
2018-02-21T10:21:38.051Z,54.20
2018-02-21T10:22:38.059Z,54.10
2018-02-21T10:23:38.031Z,55.60
2018-02-21T10:24:38.001Z,63.60
2018-02-21T10:25:37.992Z,59.40
2018-02-21T10:26:37.974Z,57.30
2018-02-21T10:27:37.959Z,60.40
2018-02-21T10:28:37.945Z,55.00
2018-02-21T10:29:37.930Z,53.40
2018-02-21T10:30:37.914Z,54.60
2018-02-21T10:31:37.899Z,55.90
2018-02-21T10:32:37.894Z,54.50
2018-02-21T10:33:37.967Z,57.90
2018-02-21T10:34:37.852Z,78.10
2018-02-21T10:35:37.840Z,56.20
2018-02-21T10:36:37.830Z,57.90
2018-02-21T10:37:37.805Z,53.90
2018-02-21T10:38:37.793Z,57.60
2018-02-21T10:39:37.782Z,50.80
2018-02-21T10:40:37.761Z,52.30
2018-02-21T10:41:37.745Z,53.40
2018-02-21T10:42:37.732Z,57.00
2018-02-21T10:43:37.717Z,54.30
2018-02-21T10:44:37.706Z,56.30
2018-02-21T10:45:37.735Z,53.30
2018-02-21T10:46:37.668Z,57.80
2018-02-21T10:47:37.664Z,52.60
2018-02-21T10:48:37.643Z,59.70
2018-02-21T10:49:37.620Z,58.00
2018-02-21T10:50:37.606Z,54.30
2018-02-21T10:51:37.588Z,58.30
2018-02-21T10:52:37.589Z,54.40
2018-02-21T10:53:37.560Z,69.00
2018-02-21T10:54:37.542Z,54.60
2018-02-21T10:55:37.641Z,49.70
2018-02-21T10:56:37.509Z,48.60
2018-02-21T10:57:37.496Z,47.40
2018-02-21T10:58:37.486Z,45.60
2018-02-21T10:59:37.515Z,39.60
2018-02-21T11:00:37.445Z,46.60
2018-02-21T11:01:37.430Z,54.80
2018-02-21T11:02:37.418Z,54.00
2018-02-21T11:03:37.404Z,45.50
2018-02-21T11:04:37.379Z,45.50
2018-02-21T11:05:37.367Z,54.50
2018-02-21T11:06:37.348Z,61.20
2018-02-21T11:07:37.329Z,52.60
2018-02-21T11:08:37.311Z,48.40
2018-02-21T11:09:37.308Z,47.00
2018-02-21T11:10:37.277Z,54.00
2018-02-21T11:11:37.259Z,53.10
2018-02-21T11:12:37.244Z,48.10
2018-02-21T11:13:37.225Z,46.60
2018-02-21T11:14:37.208Z,52.30
2018-02-21T11:15:37.188Z,50.10
2018-02-21T11:16:37.175Z,48.10
2018-02-21T11:17:37.164Z,52.20
2018-02-21T11:18:37.139Z,43.60
2018-02-21T11:19:37.135Z,39.80
2018-02-21T11:20:37.103Z,44.50
2018-02-21T11:21:37.086Z,45.20
2018-02-21T11:22:37.122Z,46.50
2018-02-21T11:23:37.072Z,47.50
2018-02-21T11:24:37.033Z,47.40
2018-02-21T11:25:37.023Z,47.50
2018-02-21T11:26:36.995Z,48.90
2018-02-21T11:27:36.979Z,48.50
2018-02-21T11:28:36.963Z,50.90
2018-02-21T11:29:36.944Z,49.30
2018-02-21T11:30:36.925Z,46.30
2018-02-21T11:31:36.907Z,46.80
2018-02-21T11:32:36.891Z,47.80
2018-02-21T11:33:36.872Z,46.00
2018-02-21T11:34:36.856Z,46.40
2018-02-21T11:35:36.908Z,48.80
2018-02-21T11:36:36.816Z,50.10
2018-02-21T11:37:36.805Z,47.80
2018-02-21T11:38:36.789Z,42.60
2018-02-21T11:39:36.764Z,47.20
2018-02-21T11:40:36.744Z,47.60
2018-02-21T11:41:36.720Z,52.10
2018-02-21T11:42:36.709Z,49.30
2018-02-21T11:43:36.694Z,46.40
2018-02-21T11:44:36.666Z,50.50
2018-02-21T11:45:36.652Z,46.40
2018-02-21T11:46:36.632Z,42.40
2018-02-21T11:47:36.610Z,41.10
2018-02-21T11:48:36.589Z,43.00
2018-02-21T11:49:36.574Z,45.80
2018-02-21T11:50:36.558Z,45.10
2018-02-21T11:51:36.529Z,55.80
2018-02-21T11:52:36.514Z,65.20
2018-02-21T11:53:36.499Z,47.50
2018-02-21T11:54:36.498Z,45.10
2018-02-21T11:55:36.460Z,41.80
2018-02-21T11:56:36.431Z,45.60
2018-02-21T11:57:36.458Z,49.90
2018-02-21T11:58:36.392Z,48.30
2018-02-21T11:59:36.374Z,46.10
2018-02-21T12:00:36.352Z,53.00
2018-02-21T12:01:36.332Z,47.50
2018-02-21T12:02:36.443Z,48.40
2018-02-21T12:03:36.298Z,45.10
2018-02-21T12:04:36.284Z,47.40
2018-02-21T12:05:36.279Z,49.30
2018-02-21T12:06:36.239Z,49.90
2018-02-21T12:07:36.220Z,47.10
2018-02-21T12:08:36.205Z,43.30
2018-02-21T12:09:36.177Z,41.20
2018-02-21T12:10:36.158Z,38.40
2018-02-21T12:11:36.142Z,39.20
2018-02-21T12:12:36.118Z,42.90
2018-02-21T12:13:36.133Z,49.30
2018-02-21T12:14:36.078Z,41.90
2018-02-21T12:15:36.056Z,42.20
2018-02-21T12:16:36.037Z,50.50
2018-02-21T12:17:36.017Z,57.20
2018-02-21T12:18:35.995Z,46.90
2018-02-21T12:19:35.978Z,41.20
2018-02-21T12:20:35.954Z,38.40
2018-02-21T12:21:35.958Z,45.80
2018-02-21T12:22:35.918Z,41.20
2018-02-21T12:23:35.890Z,46.90
2018-02-21T12:24:35.870Z,47.00
2018-02-21T12:25:35.864Z,44.70
2018-02-21T12:26:35.841Z,45.10
2018-02-21T12:27:35.812Z,44.40
2018-02-21T12:28:35.786Z,45.30
2018-02-21T12:29:35.767Z,45.20
2018-02-21T12:30:35.747Z,47.00
2018-02-21T12:31:35.733Z,44.20
2018-02-21T12:32:35.706Z,48.90
2018-02-21T12:33:35.687Z,51.70
2018-02-21T12:34:35.668Z,48.40
2018-02-21T12:35:35.646Z,45.50
2018-02-21T12:36:35.633Z,46.20
2018-02-21T12:37:35.629Z,40.90
2018-02-21T12:38:35.585Z,41.40